createdAt,value
2022-10-31T00:02:18.516Z,99.79
2022-10-31T00:05:46.954Z,99.93
2022-10-31T00:09:05.727Z,100.00
2022-10-31T00:12:23.923Z,99.98
2022-10-31T00:15:34.408Z,99.96
2022-10-31T00:18:36.091Z,99.89
2022-10-31T00:21:38.042Z,99.45
2022-10-31T00:24:39.769Z,98.97
2022-10-31T00:27:42.175Z,97.90
2022-10-31T00:30:43.985Z,98.48
2022-10-31T00:33:45.866Z,98.85
2022-10-31T00:36:47.644Z,98.93
2022-10-31T00:39:50.782Z,99.11
2022-10-31T00:42:52.567Z,98.95
2022-10-31T00:45:55.079Z,99.16
2022-10-31T00:48:56.810Z,99.42
2022-10-31T00:51:58.558Z,99.19
2022-10-31T00:55:00.445Z,99.16
2022-10-31T00:58:02.559Z,99.25
2022-10-31T01:01:05.485Z,99.40
2022-10-31T01:04:07.541Z,99.29
2022-10-31T01:07:09.437Z,99.16
2022-10-31T01:10:12.178Z,99.41
2022-10-31T01:13:14.004Z,99.56
2022-10-31T01:16:18.874Z,99.90
2022-10-31T01:19:21.035Z,100.00
2022-10-31T01:22:22.720Z,100.00
2022-10-31T01:25:27.530Z,100.00
2022-10-31T01:28:29.406Z,99.96
2022-10-31T01:31:33.580Z,100.00
2022-10-31T01:34:35.443Z,100.00
2022-10-31T01:37:37.185Z,100.00
2022-10-31T01:40:38.938Z,100.00
2022-10-31T01:44:23.708Z,100.00
2022-10-31T01:47:43.226Z,100.00
2022-10-31T01:50:46.416Z,100.00
2022-10-31T01:53:48.243Z,100.00
2022-10-31T01:56:52.238Z,100.00
2022-10-31T01:59:57.147Z,100.00
2022-10-31T02:03:01.213Z,100.00
2022-10-31T02:06:04.640Z,100.00
2022-10-31T02:09:07.328Z,100.00
2022-10-31T02:12:11.043Z,100.00
2022-10-31T02:15:12.801Z,100.00
2022-10-31T02:18:14.640Z,100.00
2022-10-31T02:21:29.631Z,100.00
2022-10-31T02:24:31.317Z,100.00
2022-10-31T02:28:04.645Z,100.00
2022-10-31T02:31:14.089Z,100.00
2022-10-31T02:34:22.191Z,100.00
2022-10-31T02:37:48.778Z,100.00
2022-10-31T02:41:13.866Z,100.00
2022-10-31T02:44:27.607Z,100.00
2022-10-31T02:47:31.358Z,100.00
2022-10-31T02:50:35.824Z,100.00
2022-10-31T02:53:38.982Z,100.00
2022-10-31T02:56:40.754Z,100.00
2022-10-31T02:59:48.539Z,100.00
2022-10-31T03:02:55.541Z,100.00
2022-10-31T03:06:09.253Z,100.00
2022-10-31T03:09:26.062Z,100.00
2022-10-31T03:12:31.343Z,100.00
2022-10-31T03:15:40.392Z,99.76
2022-10-31T03:18:50.253Z,99.39
2022-10-31T03:21:59.546Z,100.00
2022-10-31T03:25:03.453Z,100.00
2022-10-31T03:28:08.850Z,100.00
2022-10-31T03:31:11.714Z,99.99
2022-10-31T03:34:14.021Z,99.81
2022-10-31T03:37:19.087Z,99.95
2022-10-31T03:40:23.077Z,100.00
2022-10-31T03:43:29.416Z,100.00
2022-10-31T03:46:32.185Z,100.00
2022-10-31T03:49:34.673Z,100.00
2022-10-31T03:52:39.394Z,100.00
2022-10-31T03:55:52.595Z,100.00
2022-10-31T03:59:07.366Z,100.00
2022-10-31T04:02:21.814Z,100.00
2022-10-31T04:05:23.830Z,100.00
2022-10-31T04:08:28.376Z,100.00
2022-10-31T04:11:34.182Z,100.00
2022-10-31T04:14:39.572Z,100.00
2022-10-31T04:17:43.250Z,100.00
2022-10-31T04:20:44.986Z,100.00
2022-10-31T04:23:46.725Z,100.00
2022-10-31T04:26:48.914Z,100.00
2022-10-31T04:29:51.042Z,100.00
2022-10-31T04:32:52.932Z,100.00
2022-10-31T04:35:54.706Z,100.00
2022-10-31T04:38:56.377Z,100.00
2022-10-31T04:41:57.913Z,100.00
2022-10-31T04:44:59.525Z,100.00
2022-10-31T04:48:01.655Z,100.00
2022-10-31T04:51:04.036Z,100.00
2022-10-31T04:54:05.776Z,100.00
2022-10-31T04:57:07.603Z,100.00
2022-10-31T05:00:10.512Z,100.00
2022-10-31T05:03:12.166Z,100.00
2022-10-31T05:06:13.768Z,100.00
2022-10-31T05:09:15.481Z,100.00
2022-10-31T05:12:17.082Z,100.00
2022-10-31T05:15:19.360Z,100.00
2022-10-31T05:18:21.206Z,100.00
2022-10-31T05:21:22.968Z,100.00
2022-10-31T05:24:24.750Z,100.00
2022-10-31T05:27:26.425Z,100.00
2022-10-31T05:30:32.359Z,100.00
2022-10-31T05:33:34.033Z,100.00
2022-10-31T05:36:35.863Z,100.00
2022-10-31T05:39:38.006Z,100.00
2022-10-31T05:42:41.358Z,100.00
2022-10-31T05:45:42.972Z,100.00
2022-10-31T05:48:44.612Z,100.00
2022-10-31T05:51:46.381Z,100.00
2022-10-31T05:54:47.948Z,100.00
2022-10-31T05:57:49.949Z,100.00
2022-10-31T06:00:51.822Z,100.00
2022-10-31T06:03:53.744Z,100.00
2022-10-31T06:06:55.399Z,100.00
2022-10-31T06:09:57.053Z,100.00
2022-10-31T06:12:58.749Z,100.00
2022-10-31T06:16:00.438Z,100.00
2022-10-31T06:19:01.974Z,100.00
2022-10-31T06:22:03.927Z,100.00
2022-10-31T06:25:05.819Z,100.00
2022-10-31T06:28:07.430Z,100.00
2022-10-31T06:31:09.185Z,100.00
2022-10-31T06:34:11.000Z,100.00
2022-10-31T06:37:13.274Z,100.00
2022-10-31T06:40:14.911Z,100.00
2022-10-31T06:43:16.573Z,100.00
2022-10-31T06:46:18.444Z,100.00
2022-10-31T06:49:20.195Z,100.00
2022-10-31T06:52:24.436Z,100.00
2022-10-31T06:55:27.401Z,100.00
2022-10-31T06:58:29.280Z,100.00
2022-10-31T07:01:31.055Z,100.00
2022-10-31T07:04:32.878Z,100.00
2022-10-31T07:07:34.575Z,100.00
2022-10-31T07:10:40.294Z,100.00
2022-10-31T07:13:42.692Z,100.00
2022-10-31T07:16:44.334Z,100.00
2022-10-31T07:19:45.964Z,100.00
2022-10-31T07:22:50.545Z,100.00
2022-10-31T07:25:57.083Z,100.00
2022-10-31T07:29:00.264Z,100.00
2022-10-31T07:32:02.825Z,100.00
2022-10-31T07:35:04.798Z,100.00
2022-10-31T07:38:11.319Z,100.00
2022-10-31T07:41:13.064Z,100.00
2022-10-31T07:44:14.755Z,100.00
2022-10-31T07:47:16.421Z,100.00
2022-10-31T07:50:23.680Z,100.00
2022-10-31T07:53:25.345Z,100.00
2022-10-31T07:56:27.053Z,100.00
2022-10-31T07:59:28.717Z,100.00
2022-10-31T08:02:30.448Z,100.00
2022-10-31T08:05:33.545Z,100.00
2022-10-31T08:08:37.552Z,100.00
2022-10-31T08:11:40.318Z,100.00
2022-10-31T08:14:42.084Z,100.00
2022-10-31T08:17:43.785Z,100.00
2022-10-31T08:20:45.724Z,100.00
2022-10-31T08:23:47.437Z,100.00
2022-10-31T08:26:49.243Z,100.00
2022-10-31T08:29:50.945Z,98.94
2022-10-31T08:33:02.653Z,98.05
2022-10-31T08:36:04.798Z,96.90
2022-10-31T08:39:06.517Z,96.21
2022-10-31T08:42:08.396Z,95.68
2022-10-31T08:45:10.530Z,95.40
2022-10-31T08:48:14.188Z,93.60
2022-10-31T08:51:15.844Z,92.01
2022-10-31T08:54:17.566Z,91.81
2022-10-31T08:57:19.622Z,92.18
2022-10-31T09:00:21.446Z,90.46
2022-10-31T09:03:28.722Z,91.04
2022-10-31T09:06:30.732Z,90.95
2022-10-31T09:09:32.430Z,89.52
2022-10-31T09:12:34.038Z,89.56
2022-10-31T09:15:37.679Z,89.98
2022-10-31T09:18:39.436Z,89.33
2022-10-31T09:21:41.132Z,89.76
2022-10-31T09:24:42.805Z,88.48
2022-10-31T09:27:44.475Z,88.48
2022-10-31T09:30:48.597Z,87.77
2022-10-31T09:33:50.783Z,86.36
2022-10-31T09:36:54.009Z,86.89
2022-10-31T09:39:55.724Z,87.12
2022-10-31T09:43:00.108Z,84.80
2022-10-31T09:46:23.739Z,85.89
2022-10-31T09:49:46.680Z,85.61
2022-10-31T09:53:09.462Z,85.11
2022-10-31T09:56:15.330Z,84.70
2022-10-31T09:59:26.749Z,83.20
2022-10-31T10:02:33.789Z,83.04
2022-10-31T10:05:42.356Z,82.15
2022-10-31T10:08:44.277Z,82.54
2022-10-31T10:12:07.663Z,82.89
2022-10-31T10:15:27.806Z,82.32
2022-10-31T10:18:57.889Z,82.34
2022-10-31T10:22:02.511Z,81.48
2022-10-31T10:25:16.481Z,80.24
2022-10-31T10:28:31.622Z,80.08
2022-10-31T10:31:41.908Z,79.12
2022-10-31T10:34:49.132Z,80.28
2022-10-31T10:37:54.392Z,81.03
2022-10-31T10:40:56.240Z,79.88
2022-10-31T10:43:58.188Z,80.58
2022-10-31T10:47:19.145Z,79.83
2022-10-31T10:50:28.866Z,80.29
2022-10-31T10:53:50.110Z,79.21
2022-10-31T10:57:10.305Z,78.93
2022-10-31T11:00:18.951Z,78.91
2022-10-31T11:03:20.769Z,79.11
2022-10-31T11:06:27.018Z,78.69
2022-10-31T11:09:28.972Z,78.12
2022-10-31T11:12:33.300Z,78.18
2022-10-31T11:15:39.167Z,77.45
2022-10-31T11:18:44.289Z,76.88
2022-10-31T11:21:53.755Z,76.07
2022-10-31T11:24:56.119Z,76.02
2022-10-31T11:28:10.286Z,75.86
2022-10-31T11:31:16.628Z,76.04
2022-10-31T11:34:33.655Z,75.80
2022-10-31T11:37:36.710Z,75.90
2022-10-31T11:40:38.364Z,75.98
2022-10-31T11:43:46.363Z,75.83
2022-10-31T11:47:11.368Z,76.63
2022-10-31T11:50:20.683Z,77.85
2022-10-31T11:53:31.015Z,78.23
2022-10-31T11:56:43.073Z,78.60
2022-10-31T11:59:55.573Z,78.49
2022-10-31T12:03:25.104Z,78.71
2022-10-31T12:06:33.323Z,78.88
2022-10-31T12:09:36.987Z,78.98
2022-10-31T12:13:12.937Z,79.25
2022-10-31T12:16:34.299Z,79.18
2022-10-31T12:19:42.018Z,79.26
2022-10-31T12:22:59.582Z,79.62
2022-10-31T12:26:24.953Z,78.88
2022-10-31T12:29:35.758Z,78.85
2022-10-31T12:32:56.331Z,78.96
2022-10-31T12:36:16.879Z,79.49
2022-10-31T12:39:41.488Z,79.44
2022-10-31T12:43:01.130Z,79.01
2022-10-31T12:46:04.265Z,79.15
2022-10-31T12:49:44.237Z,79.28
2022-10-31T12:52:48.814Z,78.94
2022-10-31T12:56:13.408Z,78.67
2022-10-31T12:59:24.311Z,78.72
2022-10-31T13:02:44.867Z,78.60
2022-10-31T13:05:50.935Z,78.72
2022-10-31T13:08:55.672Z,78.72
2022-10-31T13:12:06.086Z,78.17
2022-10-31T13:15:28.871Z,78.13
2022-10-31T13:18:34.167Z,78.00
2022-10-31T13:21:41.302Z,78.04
2022-10-31T13:25:04.851Z,77.88
2022-10-31T13:28:46.633Z,77.66
2022-10-31T13:31:48.544Z,77.86
2022-10-31T13:34:57.341Z,77.98
2022-10-31T13:38:04.252Z,78.03
2022-10-31T13:41:12.038Z,77.99
2022-10-31T13:44:25.074Z,77.81
2022-10-31T13:47:30.452Z,77.76
2022-10-31T13:50:34.164Z,77.86
2022-10-31T13:53:40.629Z,77.75
2022-10-31T13:56:42.364Z,77.94
2022-10-31T13:59:50.767Z,77.98
2022-10-31T14:02:55.491Z,78.01
2022-10-31T14:05:58.651Z,77.80
2022-10-31T14:09:00.346Z,77.92
2022-10-31T14:12:05.753Z,77.87
2022-10-31T14:15:10.456Z,77.95
2022-10-31T14:18:24.744Z,77.85
2022-10-31T14:21:26.601Z,78.34
2022-10-31T14:24:28.307Z,78.12
2022-10-31T14:27:29.948Z,78.01
2022-10-31T14:30:32.139Z,78.07
2022-10-31T14:33:34.579Z,78.08
2022-10-31T14:37:00.592Z,78.26
2022-10-31T14:40:27.143Z,78.15
2022-10-31T14:43:53.403Z,78.13
2022-10-31T14:47:03.240Z,78.08
2022-10-31T14:50:10.819Z,78.03
2022-10-31T14:53:21.734Z,78.14
2022-10-31T14:56:36.042Z,78.23
2022-10-31T14:59:39.355Z,78.36
2022-10-31T15:03:08.917Z,78.40
2022-10-31T15:06:15.491Z,78.37
2022-10-31T15:09:31.074Z,78.42
2022-10-31T15:12:35.144Z,78.74
2022-10-31T15:15:37.563Z,79.13
2022-10-31T15:19:04.659Z,79.46
2022-10-31T15:22:06.818Z,79.81
2022-10-31T15:25:18.782Z,79.85
2022-10-31T15:28:25.865Z,79.98
2022-10-31T15:31:27.529Z,80.28
2022-10-31T15:34:29.184Z,80.67
2022-10-31T15:37:31.209Z,80.95
2022-10-31T15:40:33.020Z,81.16
2022-10-31T15:43:38.567Z,81.37
2022-10-31T15:46:40.346Z,81.70
2022-10-31T15:49:47.483Z,81.92
2022-10-31T15:52:50.982Z,81.93
2022-10-31T15:55:56.156Z,81.74
2022-10-31T15:59:00.212Z,81.90
2022-10-31T16:02:04.341Z,82.17
2022-10-31T16:05:33.455Z,82.66
2022-10-31T16:08:36.548Z,83.02
2022-10-31T16:11:39.440Z,83.27
2022-10-31T16:14:42.424Z,83.30
2022-10-31T16:17:49.114Z,83.47
2022-10-31T16:20:53.927Z,83.58
2022-10-31T16:24:03.835Z,83.79
2022-10-31T16:27:18.835Z,83.98
2022-10-31T16:30:31.870Z,84.23
2022-10-31T16:33:37.467Z,84.40
2022-10-31T16:36:40.751Z,84.48
2022-10-31T16:39:42.504Z,84.65
2022-10-31T16:42:45.448Z,84.77
2022-10-31T16:45:49.041Z,84.95
2022-10-31T16:48:51.172Z,85.07
2022-10-31T16:51:52.943Z,85.28
2022-10-31T16:54:55.660Z,85.30
2022-10-31T16:57:58.486Z,85.63
2022-10-31T17:01:02.329Z,85.60
2022-10-31T17:04:04.129Z,85.84
2022-10-31T17:07:05.786Z,86.61
2022-10-31T17:10:08.712Z,86.49
2022-10-31T17:13:15.615Z,86.90
2022-10-31T17:16:17.503Z,86.95
2022-10-31T17:19:19.627Z,87.10
2022-10-31T17:22:21.353Z,87.07
2022-10-31T17:25:25.745Z,86.60
2022-10-31T17:28:27.449Z,86.61
2022-10-31T17:31:31.254Z,86.49
2022-10-31T17:34:33.051Z,86.86
2022-10-31T17:37:35.167Z,87.09
2022-10-31T17:40:39.080Z,87.40
2022-10-31T17:43:40.795Z,87.04
2022-10-31T17:46:42.713Z,86.19
2022-10-31T17:49:44.499Z,86.74
2022-10-31T17:52:46.468Z,87.24
2022-10-31T17:55:48.119Z,87.56
2022-10-31T17:58:49.776Z,86.84
2022-10-31T18:01:51.660Z,86.30
2022-10-31T18:04:53.597Z,86.55
2022-10-31T18:07:57.287Z,87.03
2022-10-31T18:11:06.564Z,87.28
2022-10-31T18:14:09.002Z,87.74
2022-10-31T18:17:10.807Z,88.16
2022-10-31T18:20:12.875Z,88.69
2022-10-31T18:23:14.863Z,88.99
2022-10-31T18:26:16.583Z,89.49
2022-10-31T18:29:18.302Z,89.07
2022-10-31T18:32:19.921Z,89.17
2022-10-31T18:35:21.713Z,89.32
2022-10-31T18:38:23.612Z,89.59
2022-10-31T18:41:25.898Z,89.53
2022-10-31T18:44:28.007Z,89.71
2022-10-31T18:47:29.661Z,89.69
2022-10-31T18:50:31.341Z,90.16
2022-10-31T18:53:33.544Z,90.13
2022-10-31T18:56:35.323Z,90.75
2022-10-31T18:59:37.095Z,90.95
2022-10-31T19:02:38.916Z,90.85
2022-10-31T19:05:40.669Z,90.90
2022-10-31T19:08:45.000Z,90.99
2022-10-31T19:11:46.883Z,90.33
2022-10-31T19:14:49.302Z,90.14
2022-10-31T19:17:51.149Z,90.35
2022-10-31T19:20:52.981Z,90.37
2022-10-31T19:23:56.527Z,90.92
2022-10-31T19:27:00.679Z,91.04
2022-10-31T19:30:02.324Z,91.51
2022-10-31T19:33:04.151Z,91.08
2022-10-31T19:36:11.453Z,90.98
2022-10-31T19:39:13.447Z,90.67
2022-10-31T19:42:15.060Z,90.27
2022-10-31T19:45:17.387Z,90.23
2022-10-31T19:48:19.010Z,90.11
2022-10-31T19:51:21.768Z,90.49
2022-10-31T19:54:23.387Z,90.19
2022-10-31T19:57:48.487Z,91.08
2022-10-31T20:00:47.094Z,90.97
2022-10-31T20:03:49.500Z,91.50
2022-10-31T20:06:51.264Z,91.84
2022-10-31T20:09:53.085Z,91.76
2022-10-31T20:12:54.721Z,91.44
2022-10-31T20:16:06.352Z,91.57
2022-10-31T20:19:08.333Z,91.88
2022-10-31T20:22:11.054Z,92.01
2022-10-31T20:25:12.800Z,92.20
2022-10-31T20:28:14.789Z,92.17
2022-10-31T20:31:20.267Z,92.28
2022-10-31T20:34:21.922Z,92.13
2022-10-31T20:37:23.698Z,92.05
2022-10-31T20:40:25.401Z,91.80
2022-10-31T20:43:27.106Z,91.39
2022-10-31T20:46:29.091Z,92.23
2022-10-31T20:49:30.801Z,92.32
2022-10-31T20:52:32.453Z,91.93
2022-10-31T20:55:34.032Z,92.45
2022-10-31T20:58:37.441Z,92.56
2022-10-31T21:01:39.301Z,92.48
2022-10-31T21:04:41.409Z,92.59
2022-10-31T21:07:43.188Z,92.41
2022-10-31T21:10:44.884Z,92.51
2022-10-31T21:13:47.140Z,92.40
2022-10-31T21:16:48.896Z,92.74
2022-10-31T21:19:50.526Z,92.69
2022-10-31T21:22:52.445Z,92.48
2022-10-31T21:25:54.187Z,92.35
2022-10-31T21:28:58.118Z,92.63
2022-10-31T21:31:59.927Z,92.51
2022-10-31T21:35:01.643Z,92.83
2022-10-31T21:38:03.840Z,93.24
2022-10-31T21:41:08.096Z,93.48
2022-10-31T21:44:09.860Z,93.45
2022-10-31T21:47:11.605Z,93.58
2022-10-31T21:50:13.811Z,93.78
2022-10-31T21:53:34.086Z,93.00
2022-10-31T21:56:36.247Z,93.54
2022-10-31T21:59:38.038Z,93.61
2022-10-31T22:02:39.864Z,93.98
2022-10-31T22:05:41.450Z,94.32
2022-10-31T22:08:43.165Z,94.25
2022-10-31T22:11:44.851Z,94.36
2022-10-31T22:14:49.013Z,94.42
2022-10-31T22:17:51.073Z,94.41
2022-10-31T22:20:52.794Z,94.53
2022-10-31T22:23:55.442Z,94.43
2022-10-31T22:26:57.204Z,94.43
2022-10-31T22:29:58.946Z,94.31
2022-10-31T22:33:01.049Z,94.45
2022-10-31T22:36:04.588Z,94.67
2022-10-31T22:39:07.110Z,94.45
2022-10-31T22:42:08.763Z,94.45
2022-10-31T22:45:11.107Z,94.46
2022-10-31T22:48:12.731Z,94.71
2022-10-31T22:51:24.996Z,94.67
2022-10-31T22:54:26.911Z,94.46
2022-10-31T22:57:28.677Z,94.50
2022-10-31T23:00:30.181Z,94.75
2022-10-31T23:03:31.833Z,94.93
2022-10-31T23:06:33.977Z,95.20
2022-10-31T23:09:35.901Z,95.32
2022-10-31T23:12:56.329Z,95.36
2022-10-31T23:15:57.979Z,95.43
2022-10-31T23:18:59.877Z,95.39
2022-10-31T23:22:04.191Z,95.15
2022-10-31T23:25:06.265Z,95.25
2022-10-31T23:28:07.904Z,95.18
2022-10-31T23:31:09.565Z,94.92
2022-10-31T23:34:11.318Z,95.02
2022-10-31T23:37:13.770Z,95.12
2022-10-31T23:40:15.779Z,95.05
2022-10-31T23:43:17.517Z,95.20
2022-10-31T23:46:19.145Z,95.09
2022-10-31T23:49:21.076Z,95.27
2022-10-31T23:52:22.880Z,95.34
2022-10-31T23:55:25.467Z,95.58
2022-10-31T23:58:27.071Z,95.69
